Time;durP1;ratioP1;P1;durP2;ratioP2;P2;SDS_P1;SDS_P2;PMS_P1;PMS_P2;Temp;Humidity;BMP_temperature;BMP_pressure;BME280_temperature;BME280_humidity;BME280_pressure;Samples;Min_cycle;Max_cycle;Signal;HPM_P1;HPM_P2
2021/06/24 00:00:52;;;;;;;3.92;0.80;;;15.00;99.90;;;;;;5090329;28;20051;-78
2021/06/24 00:03:19;;;;;;;6.20;1.60;;;14.90;99.90;;;;;;5108386;28;20020;-78
2021/06/24 00:05:46;;;;;;;4.10;1.20;;;14.90;99.90;;;;;;5090146;28;20043;-78
2021/06/24 00:08:13;;;;;;;2.22;0.85;;;14.80;99.90;;;;;;5108258;28;20080;-78
2021/06/24 00:10:41;;;;;;;5.38;1.30;;;14.80;99.90;;;;;;5108273;28;20027;-78
2021/06/24 00:13:08;;;;;;;7.45;1.58;;;14.80;99.90;;;;;;5089945;28;20039;-78
2021/06/24 00:15:35;;;;;;;2.58;1.05;;;14.70;99.90;;;;;;5089850;28;20036;-78
2021/06/24 00:18:01;;;;;;;4.35;1.10;;;14.70;99.90;;;;;;5089754;28;20085;-78
2021/06/24 00:20:27;;;;;;;5.93;1.73;;;14.70;99.90;;;;;;5108120;28;20023;-78
2021/06/24 00:22:53;;;;;;;5.18;2.40;;;14.60;99.90;;;;;;5108029;28;20039;-77
2021/06/24 00:25:19;;;;;;;4.50;1.80;;;14.60;99.90;;;;;;5089709;28;20095;-78
2021/06/24 00:27:45;;;;;;;5.55;1.70;;;14.70;99.90;;;;;;5107733;28;20507;-78
2021/06/24 00:30:12;;;;;;;3.42;1.23;;;14.70;99.90;;;;;;5089594;28;20028;-78
2021/06/24 00:32:37;;;;;;;3.80;1.10;;;14.80;99.90;;;;;;5107951;28;20102;-78
2021/06/24 00:35:05;;;;;;;2.75;1.20;;;14.70;99.90;;;;;;5107711;28;20422;-77
2021/06/24 00:37:34;;;;;;;2.30;1.17;;;14.70;99.90;;;;;;5107627;28;20063;-77
2021/06/24 00:40:00;;;;;;;3.28;1.10;;;14.70;99.90;;;;;;5089509;28;20024;-77
2021/06/24 00:42:27;;;;;;;6.70;1.55;;;14.60;99.90;;;;;;5107579;28;20062;-77
2021/06/24 00:44:53;;;;;;;3.28;0.90;;;14.60;99.90;;;;;;5089390;28;20064;-77
2021/06/24 00:47:19;;;;;;;5.20;1.55;;;14.60;99.90;;;;;;5106003;28;20044;-78
2021/06/24 00:49:46;;;;;;;5.65;1.70;;;14.50;99.90;;;;;;5089213;28;20032;-77
2021/06/24 00:52:11;;;;;;;6.22;1.40;;;14.50;99.90;;;;;;5107364;28;20059;-77
2021/06/24 00:54:38;;;;;;;2.80;1.08;;;14.50;99.90;;;;;;5106996;28;20043;-78
2021/06/24 00:57:06;;;;;;;3.78;1.33;;;14.50;99.90;;;;;;5088743;28;20036;-77
2021/06/24 00:59:35;;;;;;;3.45;1.02;;;14.40;99.90;;;;;;5088976;28;20016;-77
2021/06/24 01:02:02;;;;;;;5.47;1.40;;;14.40;99.90;;;;;;5088952;28;20038;-77
2021/06/24 01:04:28;;;;;;;3.10;1.10;;;14.50;99.90;;;;;;5106963;28;20020;-77
2021/06/24 01:06:57;;;;;;;5.20;1.15;;;14.50;99.90;;;;;;5106949;28;20026;-77
2021/06/24 01:09:24;;;;;;;8.10;1.83;;;14.50;99.90;;;;;;5088642;28;20035;-78
2021/06/24 01:11:54;;;;;;;4.05;1.60;;;14.40;99.90;;;;;;5072312;28;20028;-78
2021/06/24 01:14:20;;;;;;;6.10;1.33;;;14.40;99.90;;;;;;5071713;28;20052;-78
2021/06/24 01:16:46;;;;;;;2.28;1.33;;;14.40;99.90;;;;;;5071641;28;20024;-77
2021/06/24 01:19:13;;;;;;;4.70;1.52;;;14.40;99.90;;;;;;5071844;28;20074;-77
2021/06/24 01:21:39;;;;;;;6.80;1.30;;;14.30;99.90;;;;;;5072123;28;20039;-78
2021/06/24 01:24:05;;;;;;;3.67;1.52;;;14.30;99.90;;;;;;5088366;28;20032;-77
2021/06/24 01:26:31;;;;;;;6.55;1.50;;;14.30;99.90;;;;;;5088398;28;20038;-77
2021/06/24 01:28:57;;;;;;;2.72;0.95;;;14.30;99.90;;;;;;5088278;28;20031;-78
2021/06/24 01:31:23;;;;;;;2.65;1.08;;;14.40;99.90;;;;;;5088612;28;20048;-78
2021/06/24 01:33:50;;;;;;;4.70;1.40;;;14.40;99.90;;;;;;5106471;28;20066;-78
2021/06/24 01:36:16;;;;;;;2.50;0.77;;;14.40;99.90;;;;;;5106355;28;20032;-78
2021/06/24 01:38:44;;;;;;;4.45;1.30;;;14.40;99.90;;;;;;5088133;28;20024;-77
2021/06/24 01:41:20;;;;;;;3.40;1.05;;;14.40;99.90;;;;;;5088380;28;20499;-77
2021/06/24 01:43:47;;;;;;;5.50;1.50;;;14.40;99.90;;;;;;5088043;28;20020;-77
2021/06/24 01:46:13;;;;;;;5.25;1.23;;;14.30;99.90;;;;;;5087412;28;20078;-77
2021/06/24 01:48:42;;;;;;;4.28;2.10;;;14.30;99.90;;;;;;5088144;28;20027;-77
2021/06/24 01:51:09;;;;;;;10.35;2.33;;;14.30;99.90;;;;;;5106145;28;20411;-77
2021/06/24 01:53:36;;;;;;;4.97;1.58;;;14.20;99.90;;;;;;5088002;28;20092;-78
2021/06/24 01:56:05;;;;;;;3.97;1.75;;;14.20;99.90;;;;;;5071337;28;20036;-78
2021/06/24 01:58:33;;;;;;;4.93;2.30;;;14.20;99.90;;;;;;5087942;28;20020;-78
2021/06/24 02:01:21;;;;;;;7.22;1.30;;;14.10;99.90;;;;;;5074127;28;20032;-78
2021/06/24 02:03:53;;;;;;;3.05;1.30;;;14.20;99.90;;;;;;5072264;28;20061;-78
2021/06/24 02:06:20;;;;;;;3.70;1.60;;;14.30;99.90;;;;;;5087652;28;20028;-77
2021/06/24 02:08:52;;;;;;;2.45;0.75;;;14.20;99.90;;;;;;5087780;28;20123;-77
2021/06/24 02:11:20;;;;;;;4.10;1.27;;;14.20;99.90;;;;;;5106051;28;20040;-78
2021/06/24 02:13:50;;;;;;;5.07;1.23;;;14.10;99.90;;;;;;5087608;28;20031;-77
2021/06/24 02:16:16;;;;;;;5.20;1.02;;;14.10;99.90;;;;;;5087287;28;20493;-78
2021/06/24 02:18:42;;;;;;;5.15;1.58;;;14.20;99.90;;;;;;5087749;28;20044;-78
2021/06/24 02:21:13;;;;;;;6.88;3.25;;;14.10;99.90;;;;;;5087619;28;20020;-77
2021/06/24 02:23:46;;;;;;;6.30;2.47;;;14.00;99.90;;;;;;5087684;28;20035;-77
2021/06/24 02:26:20;;;;;;;7.10;2.50;;;14.00;99.90;;;;;;5071851;28;20028;-78
2021/06/24 02:28:56;;;;;;;6.13;2.63;;;14.00;99.90;;;;;;5072132;28;20047;-77
2021/06/24 02:31:28;;;;;;;4.30;2.03;;;14.00;99.90;;;;;;5088416;28;20484;-78
2021/06/24 02:33:57;;;;;;;9.63;2.13;;;14.10;99.90;;;;;;5071935;28;20042;-79
2021/06/24 02:36:31;;;;;;;6.35;2.15;;;13.90;99.90;;;;;;5073158;28;20043;-78
2021/06/24 02:38:57;;;;;;;5.07;1.63;;;14.10;99.90;;;;;;5088901;28;20099;-79
2021/06/24 02:41:23;;;;;;;6.10;2.20;;;14.00;99.90;;;;;;5105605;28;20024;-78
2021/06/24 02:43:50;;;;;;;5.10;2.53;;;14.00;99.90;;;;;;5087518;28;20027;-78
2021/06/24 02:46:16;;;;;;;3.88;1.30;;;14.10;99.90;;;;;;5086868;28;20166;-78
2021/06/24 02:48:47;;;;;;;5.90;2.47;;;14.00;99.90;;;;;;5088174;28;20127;-78
2021/06/24 02:51:15;;;;;;;6.55;2.47;;;13.90;99.90;;;;;;5087160;28;20024;-79
2021/06/24 02:53:59;;;;;;;5.28;2.00;;;14.00;99.90;;;;;;5073267;28;20088;-78
2021/06/24 02:56:24;;;;;;;4.07;2.13;;;13.90;99.90;;;;;;5086855;28;20078;-78
2021/06/24 02:58:53;;;;;;;6.85;3.10;;;13.90;99.90;;;;;;5071029;28;20073;-78
2021/06/24 03:01:37;;;;;;;5.85;2.33;;;13.90;99.90;;;;;;5087225;28;20028;-78
2021/06/24 03:04:09;;;;;;;5.30;2.55;;;13.90;99.90;;;;;;5105551;28;20021;-78
2021/06/24 03:06:37;;;;;;;8.70;2.80;;;13.90;99.90;;;;;;5086936;28;20035;-78
2021/06/24 03:09:06;;;;;;;5.47;3.08;;;13.80;99.90;;;;;;5070924;28;20035;-78
2021/06/24 03:11:32;;;;;;;6.43;3.17;;;13.80;99.90;;;;;;5074553;28;20353;-78
2021/06/24 03:14:03;;;;;;;5.38;2.70;;;13.80;99.90;;;;;;5074994;28;20070;-78
2021/06/24 03:16:33;;;;;;;6.80;2.88;;;13.80;99.90;;;;;;5090412;28;20036;-78
2021/06/24 03:19:01;;;;;;;4.70;2.30;;;13.80;99.90;;;;;;5074303;28;20031;-78
2021/06/24 03:21:27;;;;;;;3.78;1.83;;;13.80;99.90;;;;;;5090978;28;20035;-79
2021/06/24 03:23:52;;;;;;;7.40;3.40;;;13.80;99.90;;;;;;5091051;28;20032;-78
2021/06/24 03:26:19;;;;;;;5.10;3.05;;;13.80;99.90;;;;;;5108834;28;20024;-78
2021/06/24 03:28:48;;;;;;;5.00;2.50;;;13.80;99.90;;;;;;5090725;28;20026;-78
2021/06/24 03:31:16;;;;;;;3.38;1.80;;;13.80;99.90;;;;;;5090868;28;20174;-78
2021/06/24 03:33:42;;;;;;;4.35;2.17;;;13.80;99.90;;;;;;5108962;28;20045;-78
2021/06/24 03:36:09;;;;;;;3.85;1.95;;;13.80;99.90;;;;;;5090319;28;20131;-78
2021/06/24 03:38:37;;;;;;;4.78;2.05;;;13.70;99.90;;;;;;5090467;28;20027;-78
2021/06/24 03:41:04;;;;;;;3.22;2.00;;;13.80;99.90;;;;;;5090680;28;20028;-78
2021/06/24 03:43:30;;;;;;;5.00;2.35;;;13.80;99.90;;;;;;5090330;28;20028;-78
2021/06/24 03:45:56;;;;;;;7.32;3.72;;;13.80;99.90;;;;;;5073328;28;20091;-78
2021/06/24 03:48:26;;;;;;;4.22;2.55;;;13.70;99.90;;;;;;5090085;28;20051;-78
2021/06/24 03:51:04;;;;;;;4.55;2.05;;;13.70;99.90;;;;;;5090301;28;20084;-80
2021/06/24 03:53:30;;;;;;;7.57;2.92;;;13.70;99.90;;;;;;5090293;28;20031;-78
2021/06/24 03:55:56;;;;;;;5.03;2.38;;;13.70;99.90;;;;;;5089939;28;20040;-78
2021/06/24 03:58:42;;;;;;;4.72;3.10;;;13.70;99.90;;;;;;5107894;28;20028;-78
2021/06/24 04:01:09;;;;;;;2.38;1.60;;;13.70;99.90;;;;;;5108368;28;20032;-78
2021/06/24 04:03:36;;;;;;;6.60;3.15;;;13.70;99.90;;;;;;5073455;28;20091;-77
2021/06/24 04:06:05;;;;;;;7.22;3.47;;;13.60;99.90;;;;;;5090044;28;20031;-77
2021/06/24 04:08:31;;;;;;;5.55;2.38;;;13.60;99.90;;;;;;5073329;28;20024;-80
2021/06/24 04:10:57;;;;;;;4.55;1.80;;;13.60;99.90;;;;;;5089908;28;20035;-78
2021/06/24 04:13:23;;;;;;;3.05;1.70;;;13.60;99.90;;;;;;5089552;28;20024;-78
2021/06/24 04:15:52;;;;;;;6.03;3.28;;;13.70;99.90;;;;;;5073158;28;20127;-78
2021/06/24 04:18:20;;;;;;;5.78;2.13;;;13.60;99.90;;;;;;5086785;28;20035;-78
2021/06/24 04:20:48;;;;;;;5.88;3.35;;;13.60;99.90;;;;;;5068883;28;20052;-78
2021/06/24 04:23:14;;;;;;;5.82;2.30;;;13.60;99.90;;;;;;5068958;28;20038;-78
2021/06/24 04:25:54;;;;;;;7.25;3.25;;;13.60;99.90;;;;;;5069843;28;20082;-78
2021/06/24 04:28:21;;;;;;;5.93;3.40;;;13.60;99.90;;;;;;5052370;28;20029;-79
2021/06/24 04:30:58;;;;;;;6.18;1.80;;;13.60;99.90;;;;;;5053455;28;20024;-78
2021/06/24 04:33:24;;;;;;;5.82;2.45;;;13.60;99.90;;;;;;5068559;28;20028;-78
2021/06/24 04:36:18;;;;;;;8.63;3.13;;;13.60;99.90;;;;;;5085779;28;20107;-80
2021/06/24 04:38:46;;;;;;;2.95;2.53;;;13.60;99.90;;;;;;5068460;28;20111;-78
2021/06/24 04:41:16;;;;;;;7.88;3.13;;;13.70;99.90;;;;;;5068527;28;20488;-78
2021/06/24 04:43:55;;;;;;;4.70;2.47;;;13.70;99.90;;;;;;5068340;28;20074;-78
2021/06/24 04:46:22;;;;;;;3.55;1.38;;;13.80;99.90;;;;;;5079579;22;20039;-78
2021/06/24 04:48:47;;;;;;;9.35;3.53;;;13.70;99.90;;;;;;5091986;28;20043;-77
2021/06/24 04:51:48;;;;;;;7.75;3.42;;;13.60;99.90;;;;;;5103574;28;20057;-78
2021/06/24 04:54:25;;;;;;;5.70;3.90;;;13.70;99.90;;;;;;5108909;28;20038;-78
2021/06/24 04:56:51;;;;;;;4.88;2.65;;;13.70;99.90;;;;;;5127338;28;20045;-78
2021/06/24 04:59:22;;;;;;;7.40;2.28;;;13.70;99.90;;;;;;5060252;28;20036;-78
2021/06/24 05:02:06;;;;;;;4.68;2.95;;;13.70;99.90;;;;;;5107579;28;20082;-78
2021/06/24 05:04:58;;;;;;;6.05;1.90;;;13.70;99.90;;;;;;5100591;28;20047;-78
2021/06/24 05:07:23;;;;;;;5.03;1.75;;;13.70;99.90;;;;;;5091624;28;20028;-80
2021/06/24 05:09:49;;;;;;;4.25;2.17;;;13.80;99.90;;;;;;5108676;28;20094;-78
2021/06/24 05:12:15;;;;;;;9.00;4.43;;;13.80;99.90;;;;;;5091963;28;20112;-78
2021/06/24 05:14:41;;;;;;;3.05;1.60;;;13.70;99.90;;;;;;5126451;28;20038;-78
2021/06/24 05:17:10;;;;;;;6.22;3.22;;;13.80;99.90;;;;;;5108406;28;20040;-80
2021/06/24 05:19:36;;;;;;;4.13;2.65;;;13.80;99.90;;;;;;5126367;28;20165;-78
2021/06/24 05:22:01;;;;;;;13.50;3.33;;;13.80;99.90;;;;;;5091209;28;20039;-78
2021/06/24 05:24:27;;;;;;;5.32;2.80;;;13.70;99.90;;;;;;5126406;28;20023;-78
2021/06/24 05:26:53;;;;;;;7.22;2.75;;;13.90;99.90;;;;;;5126360;28;20027;-78
2021/06/24 05:29:18;;;;;;;2.92;1.35;;;13.90;99.90;;;;;;5126120;28;20019;-78
2021/06/24 05:31:45;;;;;;;5.13;2.67;;;13.90;99.90;;;;;;5107985;28;20459;-78
2021/06/24 05:34:10;;;;;;;3.03;1.38;;;13.90;99.90;;;;;;5125985;28;20501;-78
2021/06/24 05:36:37;;;;;;;4.05;2.08;;;13.90;99.90;;;;;;5107631;28;20047;-78
2021/06/24 05:39:03;;;;;;;5.53;2.50;;;13.90;99.90;;;;;;5091020;28;20031;-78
2021/06/24 05:41:29;;;;;;;3.97;2.50;;;13.90;99.90;;;;;;5108096;28;20031;-78
2021/06/24 05:43:54;;;;;;;8.60;4.07;;;13.90;99.90;;;;;;5090942;28;20030;-78
2021/06/24 05:46:20;;;;;;;5.63;3.33;;;13.90;99.90;;;;;;5090785;28;20028;-78
2021/06/24 05:48:46;;;;;;;6.32;3.00;;;13.90;99.90;;;;;;5107369;28;20043;-78
2021/06/24 05:51:12;;;;;;;6.63;2.95;;;13.90;99.90;;;;;;5090727;28;20023;-78
2021/06/24 05:53:37;;;;;;;2.58;1.98;;;13.90;99.90;;;;;;5107800;28;20061;-77
2021/06/24 05:56:03;;;;;;;8.20;3.33;;;14.00;99.90;;;;;;5107408;28;20126;-78
2021/06/24 05:58:29;;;;;;;6.38;3.00;;;14.10;99.90;;;;;;5107613;28;20192;-78
2021/06/24 06:00:56;;;;;;;4.65;2.55;;;14.10;99.90;;;;;;5107476;28;20074;-78
2021/06/24 06:03:23;;;;;;;4.80;2.17;;;14.10;99.90;;;;;;5107676;28;20032;-78
2021/06/24 06:05:49;;;;;;;4.40;2.70;;;14.20;99.90;;;;;;5125549;28;20050;-79
2021/06/24 06:08:16;;;;;;;5.65;2.17;;;14.20;99.90;;;;;;5107487;28;20035;-78
2021/06/24 06:10:42;;;;;;;7.80;3.50;;;14.20;99.90;;;;;;5107481;28;20024;-79
2021/06/24 06:13:08;;;;;;;6.80;2.78;;;14.10;99.90;;;;;;5125753;28;20512;-78
2021/06/24 06:15:35;;;;;;;5.60;2.65;;;14.00;99.90;;;;;;5125391;28;20077;-78
2021/06/24 06:18:12;;;;;;;4.72;2.83;;;14.20;99.90;;;;;;5107286;28;20410;-78
2021/06/24 06:20:38;;;;;;;3.72;2.60;;;14.30;99.90;;;;;;5125527;28;20039;-79
2021/06/24 06:23:03;;;;;;;5.30;3.08;;;14.40;99.90;;;;;;5090474;28;20394;-78
2021/06/24 06:25:29;;;;;;;4.75;1.70;;;14.30;99.90;;;;;;5108036;28;20111;-78
2021/06/24 06:27:54;;;;;;;6.13;2.88;;;14.40;99.90;;;;;;5125439;28;20027;-79
2021/06/24 06:30:20;;;;;;;4.30;2.70;;;14.50;99.90;;;;;;5125360;28;20066;-79
2021/06/24 06:32:46;;;;;;;3.65;1.98;;;14.70;99.90;;;;;;5117333;28;20035;-79
2021/06/24 06:35:12;;;;;;;5.13;2.97;;;14.80;99.90;;;;;;5099928;28;20036;-78
2021/06/24 06:37:41;;;;;;;8.07;4.53;;;14.90;99.90;;;;;;5106729;28;20031;-78
2021/06/24 06:40:07;;;;;;;5.03;3.40;;;14.70;99.90;;;;;;5107015;28;20038;-78
2021/06/24 06:42:33;;;;;;;5.28;3.47;;;14.90;99.90;;;;;;5125352;28;20061;-78
2021/06/24 06:44:58;;;;;;;6.68;4.43;;;14.80;99.90;;;;;;5127126;28;20024;-78
2021/06/24 06:47:24;;;;;;;8.55;3.30;;;14.80;99.90;;;;;;5128989;28;20054;-78
2021/06/24 06:49:49;;;;;;;4.78;2.95;;;15.10;99.90;;;;;;5128864;28;20031;-78
2021/06/24 06:52:15;;;;;;;5.85;3.75;;;15.30;99.90;;;;;;5110890;28;20077;-79
2021/06/24 06:54:41;;;;;;;5.00;2.55;;;15.40;99.90;;;;;;5129292;28;20051;-78
2021/06/24 06:57:07;;;;;;;3.25;2.80;;;15.60;99.90;;;;;;5129114;28;20024;-78
2021/06/24 06:59:34;;;;;;;5.70;3.30;;;15.50;99.90;;;;;;5129244;28;20034;-78
2021/06/24 07:02:00;;;;;;;4.45;2.78;;;15.60;99.90;;;;;;5129265;28;20087;-78
2021/06/24 07:04:26;;;;;;;3.75;1.73;;;15.70;99.90;;;;;;5110364;28;20036;-78
2021/06/24 07:06:51;;;;;;;4.53;2.33;;;15.70;99.90;;;;;;5110060;28;20055;-78
2021/06/24 07:09:18;;;;;;;4.50;1.95;;;15.70;99.90;;;;;;5092530;28;20034;-78
2021/06/24 07:11:44;;;;;;;5.25;1.90;;;15.80;99.90;;;;;;5110693;28;20039;-78
2021/06/24 07:14:09;;;;;;;6.80;3.75;;;15.70;99.90;;;;;;5110834;28;20024;-78
2021/06/24 07:16:35;;;;;;;3.92;2.38;;;15.30;99.90;;;;;;5128558;28;20036;-79
2021/06/24 07:19:01;;;;;;;4.90;2.90;;;15.30;99.90;;;;;;5110392;28;20035;-78
2021/06/24 07:21:27;;;;;;;6.00;3.08;;;15.20;99.90;;;;;;5128731;28;20066;-78
2021/06/24 07:23:53;;;;;;;4.10;2.35;;;15.30;99.90;;;;;;5093599;28;20041;-78
2021/06/24 07:26:19;;;;;;;7.18;2.72;;;15.60;99.90;;;;;;5093340;28;20126;-79
2021/06/24 07:28:45;;;;;;;3.60;1.90;;;15.80;99.90;;;;;;5110488;28;20030;-78
2021/06/24 07:31:11;;;;;;;7.22;1.45;;;15.90;99.90;;;;;;5128654;28;20046;-79
2021/06/24 07:33:36;;;;;;;2.75;1.60;;;15.90;99.90;;;;;;5110181;28;20032;-79
2021/06/24 07:36:03;;;;;;;3.72;1.20;;;16.10;99.90;;;;;;5128260;28;20111;-79
2021/06/24 07:38:29;;;;;;;4.15;1.77;;;16.30;99.90;;;;;;5128471;28;20375;-79
2021/06/24 07:40:55;;;;;;;4.82;3.03;;;16.30;99.90;;;;;;5128588;28;20103;-79
2021/06/24 07:43:21;;;;;;;6.63;3.30;;;15.80;99.90;;;;;;5128464;28;20063;-78
2021/06/24 07:45:46;;;;;;;6.68;2.72;;;15.60;99.90;;;;;;5127795;28;20031;-78
2021/06/24 07:48:12;;;;;;;4.30;2.22;;;15.70;99.90;;;;;;5109690;28;20043;-79
2021/06/24 07:50:38;;;;;;;4.75;1.63;;;16.00;99.90;;;;;;5092916;28;20122;-79
2021/06/24 07:53:05;;;;;;;3.13;1.00;;;16.00;99.90;;;;;;5127964;28;20106;-78
2021/06/24 07:55:34;;;;;;;5.13;2.97;;;16.00;99.90;;;;;;5108904;28;20055;-78
2021/06/24 07:58:04;;;;;;;5.15;1.90;;;15.70;99.90;;;;;;5092626;28;20032;-79
2021/06/24 08:00:30;;;;;;;;;;;15.70;99.90;;;;;;5128892;28;20036;-79
2021/06/24 08:02:56;;;;;;;6.35;1.67;;;15.80;99.90;;;;;;5092998;28;19907;-79
2021/06/24 08:05:22;;;;;;;5.82;2.20;;;15.90;99.90;;;;;;5110188;28;20053;-78
2021/06/24 08:07:49;;;;;;;5.28;1.73;;;15.90;99.90;;;;;;5110026;28;20034;-78
2021/06/24 08:10:15;;;;;;;5.85;2.13;;;16.00;99.90;;;;;;5128672;28;20031;-79
2021/06/24 08:12:42;;;;;;;4.60;2.08;;;15.80;99.90;;;;;;5092863;28;20363;-78
2021/06/24 08:15:09;;;;;;;5.47;1.55;;;16.00;99.90;;;;;;5109712;28;20551;-78
2021/06/24 08:17:35;;;;;;;2.47;1.20;;;16.20;99.90;;;;;;5127841;28;20078;-78
2021/06/24 08:20:04;;;;;;;6.80;3.22;;;16.40;99.90;;;;;;5109552;28;20091;-79
2021/06/24 08:22:31;;;;;;;3.63;1.67;;;16.00;99.90;;;;;;5109207;28;20028;-79
2021/06/24 08:24:57;;;;;;;6.78;2.50;;;16.00;99.90;;;;;;5127791;28;20050;-79
2021/06/24 08:27:23;;;;;;;5.38;2.33;;;16.00;99.90;;;;;;5109471;28;20036;-79
2021/06/24 08:29:48;;;;;;;7.93;2.53;;;16.10;99.90;;;;;;5092647;28;20040;-79
2021/06/24 08:32:14;;;;;;;7.38;2.85;;;16.00;99.90;;;;;;5108176;28;20128;-79
2021/06/24 08:34:40;;;;;;;4.15;1.52;;;15.90;99.90;;;;;;5108940;28;20031;-80
2021/06/24 08:37:05;;;;;;;3.42;2.00;;;16.00;99.90;;;;;;5127385;28;20035;-79
2021/06/24 08:39:31;;;;;;;2.30;1.30;;;16.30;99.90;;;;;;5127633;28;20053;-79
2021/06/24 08:41:57;;;;;;;3.05;1.45;;;16.40;99.90;;;;;;5108428;28;20036;-79
2021/06/24 08:44:23;;;;;;;4.93;2.25;;;16.50;99.90;;;;;;5127588;28;20110;-80
2021/06/24 08:46:51;;;;;;;5.18;1.80;;;16.40;99.90;;;;;;5107416;28;20043;-79
2021/06/24 08:49:25;;;;;;;3.85;2.13;;;16.50;99.90;;;;;;5127444;28;20023;-79
2021/06/24 08:51:55;;;;;;;5.20;1.88;;;16.20;99.90;;;;;;5127432;28;20039;-77
2021/06/24 08:54:21;;;;;;;;;;;16.20;99.90;;;;;;5109717;28;20043;-79
2021/06/24 08:56:48;;;;;;;5.30;2.50;;;16.20;99.90;;;;;;5127322;28;20370;-79
2021/06/24 08:59:14;;;;;;;4.10;1.55;;;16.20;99.90;;;;;;5126810;28;20032;-79
2021/06/24 09:01:51;;;;;;;3.80;1.80;;;16.50;99.90;;;;;;5108309;28;20027;-79
2021/06/24 09:04:20;;;;;;;5.07;2.28;;;16.50;99.90;;;;;;5127616;28;20084;-79
2021/06/24 09:06:50;;;;;;;3.75;2.05;;;16.40;99.90;;;;;;5091809;28;20023;-80
2021/06/24 09:09:23;;;;;;;;;;;16.40;99.90;;;;;;5110413;28;20032;-79
2021/06/24 09:11:49;;;;;;;5.20;2.28;;;16.60;99.90;;;;;;5108716;28;19914;-80
2021/06/24 09:14:17;;;;;;;5.38;1.73;;;16.60;99.90;;;;;;5107942;28;20027;-79
2021/06/24 09:16:44;;;;;;;2.28;1.45;;;16.50;99.90;;;;;;5126437;28;20039;-79
2021/06/24 09:19:21;;;;;;;4.13;1.23;;;16.60;99.90;;;;;;5126645;28;20379;-79
2021/06/24 09:21:57;;;;;;;4.70;2.90;;;17.00;99.90;;;;;;5108385;28;20072;-80
2021/06/24 09:24:42;;;;;;;6.88;3.47;;;16.80;99.90;;;;;;5108253;28;20054;-80
2021/06/24 09:27:17;;;;;;;6.18;2.25;;;16.50;99.90;;;;;;5108099;28;20035;-81
2021/06/24 09:29:47;;;;;;;3.88;1.60;;;16.50;99.90;;;;;;5126433;28;20024;-79
2021/06/24 09:32:30;;;;;;;6.20;3.42;;;16.90;99.90;;;;;;5091338;28;20087;-80
2021/06/24 09:34:56;;;;;;;4.22;2.38;;;16.50;99.90;;;;;;5091136;28;20031;-79
2021/06/24 09:37:22;;;;;;;3.70;1.60;;;16.50;99.90;;;;;;5108007;28;20115;-79
2021/06/24 09:39:48;;;;;;;3.40;1.70;;;16.60;99.90;;;;;;5090794;28;20652;-79
2021/06/24 09:42:14;;;;;;;3.72;1.50;;;16.60;99.90;;;;;;5091131;28;20031;-79
2021/06/24 09:44:46;;;;;;;5.50;2.20;;;16.60;99.90;;;;;;5090770;28;20023;-79
2021/06/24 09:47:19;;;;;;;3.60;1.48;;;16.60;99.90;;;;;;5107360;28;20047;-79
2021/06/24 09:50:01;;;;;;;4.28;1.55;;;17.00;99.90;;;;;;5090796;28;20032;-79
2021/06/24 09:52:28;;;;;;;5.88;3.45;;;17.00;99.90;;;;;;5125801;28;20031;-79
2021/06/24 09:55:21;;;;;;;3.83;2.13;;;16.70;99.90;;;;;;5107490;28;20027;-79
2021/06/24 09:57:51;;;;;;;3.58;2.15;;;17.20;99.90;;;;;;5125647;28;20078;-79
2021/06/24 10:00:33;;;;;;;3.67;1.45;;;17.40;99.90;;;;;;5107804;28;20042;-79
2021/06/24 10:03:03;;;;;;;4.80;1.70;;;17.80;99.90;;;;;;5107621;28;20468;-79
2021/06/24 10:05:30;;;;;;;6.78;2.95;;;17.40;99.90;;;;;;5125862;28;20023;-79
2021/06/24 10:07:56;;;;;;;3.20;1.80;;;17.20;99.90;;;;;;5107366;28;20042;-79
2021/06/24 10:10:23;;;;;;;6.88;3.30;;;17.30;99.90;;;;;;5125681;28;20105;-79
2021/06/24 10:12:49;;;;;;;2.95;1.38;;;17.30;99.90;;;;;;5107521;28;20043;-79
2021/06/24 10:15:16;;;;;;;3.25;2.03;;;17.30;99.90;;;;;;5125329;28;20047;-80
2021/06/24 10:17:43;;;;;;;2.60;1.38;;;17.20;99.90;;;;;;5107593;28;20082;-79
2021/06/24 10:20:10;;;;;;;3.58;2.38;;;17.60;99.90;;;;;;5106792;28;20028;-79
2021/06/24 10:22:37;;;;;;;4.05;2.20;;;17.40;99.90;;;;;;5105290;28;20198;-79
2021/06/24 10:25:09;;;;;;;6.85;2.70;;;17.10;99.90;;;;;;5100080;28;20088;-82
2021/06/24 10:27:37;;;;;;;4.18;2.67;;;17.00;99.90;;;;;;5089927;28;20058;-81
2021/06/24 10:30:12;;;;;;;4.28;2.75;;;16.90;99.90;;;;;;5089434;28;20051;-82
2021/06/24 10:32:39;;;;;;;5.65;2.33;;;17.10;99.90;;;;;;5087846;28;20039;-81
2021/06/24 10:35:07;;;;;;;4.50;2.45;;;17.50;99.90;;;;;;5096698;28;20503;-82
2021/06/24 10:37:34;;;;;;;4.13;3.13;;;17.30;99.90;;;;;;5106936;28;20039;-81
2021/06/24 10:40:21;;;;;;;5.63;3.50;;;17.10;99.90;;;;;;5089872;28;20027;-82
2021/06/24 10:42:52;;;;;;;4.30;1.60;;;17.10;99.90;;;;;;5107246;28;20069;-83
2021/06/24 10:45:17;;;;;;;2.08;0.80;;;17.60;99.90;;;;;;5089927;28;20043;-83
2021/06/24 10:47:43;;;;;;;6.22;2.70;;;17.70;99.90;;;;;;5089315;28;20040;-79
2021/06/24 10:50:31;;;;;;;3.85;1.83;;;17.50;99.90;;;;;;5106589;28;20061;-81
2021/06/24 10:53:03;;;;;;;4.57;3.63;;;17.60;99.90;;;;;;5102490;28;20201;-80
2021/06/24 10:55:33;;;;;;;5.75;3.28;;;17.10;99.90;;;;;;5124575;28;20040;-79
2021/06/24 10:58:00;;;;;;;7.38;3.92;;;17.10;99.90;;;;;;5106703;28;20027;-82
2021/06/24 11:00:36;;;;;;;6.13;3.30;;;17.10;99.90;;;;;;5089845;28;20043;-82
2021/06/24 11:03:24;;;;;;;2.85;2.15;;;17.00;99.90;;;;;;5125111;28;20351;-80
2021/06/24 11:05:50;;;;;;;3.88;2.13;;;17.00;99.90;;;;;;5106457;28;20045;-81
2021/06/24 11:08:27;;;;;;;4.55;3.60;;;17.20;99.90;;;;;;5106810;28;20336;-79
2021/06/24 11:10:55;;;;;;;6.55;4.07;;;17.20;99.90;;;;;;5106492;28;20031;-82
2021/06/24 11:13:42;;;;;;;4.05;2.30;;;17.00;99.90;;;;;;5106696;28;20028;-80
2021/06/24 11:16:20;;;;;;;5.20;3.63;;;17.10;99.90;;;;;;5106472;28;20401;-82
2021/06/24 11:19:14;;;;;;;5.30;3.20;;;17.10;99.90;;;;;;5106143;28;20031;-81
2021/06/24 11:21:39;;;;;;;6.43;2.95;;;17.10;99.90;;;;;;5089492;28;20055;-80
2021/06/24 11:24:05;;;;;;;6.00;3.22;;;17.20;99.90;;;;;;5124807;28;20028;-80
2021/06/24 11:26:42;;;;;;;7.20;4.22;;;17.10;99.90;;;;;;5113905;27;20115;-79
2021/06/24 11:32:31;;;;;;;6.00;4.10;;;17.10;99.90;;;;;;5106440;28;20047;-81
2021/06/24 11:35:14;;;;;;;5.28;4.20;;;17.10;99.90;;;;;;5127742;28;20032;-80
2021/06/24 11:37:40;;;;;;;4.03;3.63;;;17.10;99.90;;;;;;5110034;28;20056;-83
2021/06/24 11:40:08;;;;;;;6.07;3.72;;;17.20;99.90;;;;;;5110005;28;20116;-78
2021/06/24 11:42:42;;;;;;;5.07;3.63;;;17.10;99.90;;;;;;5109664;28;20024;-81
2021/06/24 11:45:14;;;;;;;6.32;4.57;;;17.40;99.90;;;;;;5128065;28;20209;-81
2021/06/24 11:47:45;;;;;;;6.03;3.42;;;17.40;99.90;;;;;;5109452;28;20119;-82
2021/06/24 12:04:09;;;;;;;4.38;3.22;;;17.00;99.90;;;;;;5098330;28;20112;-82
2021/06/24 12:06:48;;;;;;;6.13;4.30;;;17.20;99.90;;;;;;5109536;28;20031;-84
2021/06/24 12:09:19;;;;;;;3.95;2.80;;;17.20;99.90;;;;;;5128130;28;20028;-83
2021/06/24 12:11:45;;;;;;;6.82;4.63;;;17.30;99.90;;;;;;5109553;28;20028;-84
2021/06/24 12:14:19;;;;;;;8.48;4.50;;;17.20;99.90;;;;;;5127653;28;20103;-82
2021/06/24 12:17:06;;;;;;;4.65;3.60;;;17.10;99.90;;;;;;5127213;28;20035;-82
2021/06/24 12:19:41;;;;;;;8.13;4.50;;;17.20;99.90;;;;;;5128156;28;20031;-82
2021/06/24 12:22:07;;;;;;;3.13;2.83;;;17.20;99.90;;;;;;5127938;28;20073;-79
2021/06/24 12:24:33;;;;;;;4.00;3.17;;;17.20;99.90;;;;;;5127776;28;20027;-80
2021/06/24 12:27:16;;;;;;;6.15;4.60;;;17.30;99.90;;;;;;5109092;28;20390;-80
2021/06/24 12:29:42;;;;;;;4.50;3.83;;;17.30;99.90;;;;;;5092686;28;20035;-80
2021/06/24 12:32:08;;;;;;;7.50;4.95;;;17.30;99.90;;;;;;5127690;28;20084;-79
2021/06/24 12:34:33;;;;;;;5.38;3.47;;;17.40;99.90;;;;;;5109363;28;20058;-80
2021/06/24 12:36:59;;;;;;;6.55;4.72;;;17.40;99.90;;;;;;5109240;28;20309;-80
2021/06/24 12:39:25;;;;;;;7.53;3.72;;;17.30;99.90;;;;;;5127690;28;20039;-80
2021/06/24 12:41:51;;;;;;;5.63;4.05;;;17.40;99.90;;;;;;5090927;28;20032;-80
2021/06/24 12:44:17;;;;;;;4.78;3.22;;;17.50;99.90;;;;;;5109056;28;20039;-81
2021/06/24 12:46:43;;;;;;;5.18;2.75;;;17.60;99.90;;;;;;5108085;28;20039;-80
2021/06/24 12:49:17;;;;;;;3.20;2.40;;;17.70;99.90;;;;;;5127476;28;20054;-80
2021/06/24 12:51:43;;;;;;;6.55;3.90;;;17.90;99.90;;;;;;5108632;28;20156;-80
2021/06/24 12:54:20;;;;;;;6.80;3.95;;;17.60;99.90;;;;;;5109122;28;20039;-81
2021/06/24 12:56:48;;;;;;;7.18;4.40;;;17.60;99.90;;;;;;5088266;28;20032;-80
2021/06/24 12:59:21;;;;;;;6.82;4.28;;;17.50;99.90;;;;;;5088422;28;20143;-81
2021/06/24 13:01:48;;;;;;;7.32;3.83;;;17.50;99.90;;;;;;5106651;28;20066;-80
2021/06/24 13:04:21;;;;;;;9.05;5.40;;;17.50;99.90;;;;;;5071730;28;20111;-80
2021/06/24 13:06:52;;;;;;;5.28;4.15;;;17.50;99.90;;;;;;5105110;28;20055;-80
2021/06/24 13:09:41;;;;;;;9.07;3.90;;;17.70;99.90;;;;;;5088447;28;20233;-80
2021/06/24 13:12:08;;;;;;;6.72;3.67;;;17.70;99.90;;;;;;5106512;28;20066;-80
2021/06/24 13:14:39;;;;;;;5.40;3.47;;;17.60;99.90;;;;;;5106253;28;20043;-81